Terminal Aerodrome Forecast
Issued by NWS Cleveland, OH

Home | Current Version | Previous Version | Text Only | Print | Product List | Glossary Off
Versions: 1 2 3 4 5 6 7 8 9 10 11 12 13 14

000
FTUS41 KCLE 152320
TAFERI
TAF
KERI 152320Z 1600/1624 28005KT P6SM FEW200
     FM161100 08004KT P6SM SCT200
     FM161700 02006KT P6SM FEW200=

USA.gov is the U.S. government's official web portal to all federal, state and local government web resources and services.